Terminal Aerodrome Forecast
Issued by NWS

Home | Current Version | Previous Version | Text Only | Print | Product List | Glossary On
Versions: 1 2 3 4 5 6 7 8 9 10 11 12
000
FTUS46 KSTO 031100
TAFMHR
TAF
KMHR 031120Z 0312/0412 00000KT P6SM SKC
     FM032000 32011KT P6SM SKC
     FM040200 10003KT P6SM SKC=

USA.gov is the U.S. government's official web portal to all federal, state and local government web resources and services.